Time;durP1;ratioP1;P1;durP2;ratioP2;P2;SDS_P1;SDS_P2;PMS_P1;PMS_P2;Temp;Humidity;BMP_temperature;BMP_pressure;BME280_temperature;BME280_humidity;BME280_pressure;Samples;Min_cycle;Max_cycle;Signal;HPM_P1;HPM_P2
2023/04/15 00:03:40;;;;;;;13.63;7.05;;;;;;;7.86;61.34;99702.75;10529446;28;20044;-79
2023/04/15 00:08:45;;;;;;;10.35;6.53;;;;;;;7.86;61.96;99700.06;10528378;28;20125;-78
2023/04/15 00:13:48;;;;;;;8.70;6.45;;;;;;;7.87;61.97;99702.63;10516460;28;20032;-80
2023/04/15 00:18:51;;;;;;;10.57;6.90;;;;;;;8.02;62.08;99699.69;10532428;28;20499;-78
2023/04/15 00:23:55;;;;;;;13.32;6.82;;;;;;;8.14;61.74;99702.19;10525620;28;20110;-80
2023/04/15 00:28:58;;;;;;;8.23;6.80;;;;;;;8.18;61.85;99692.97;10528546;28;20048;-80
2023/04/15 00:34:02;;;;;;;9.93;7.57;;;;;;;8.06;62.20;99690.44;10528188;28;20045;-78
2023/04/15 00:39:07;;;;;;;10.38;7.45;;;;;;;8.08;62.44;99692.00;10516415;28;20127;-78
2023/04/15 00:44:10;;;;;;;11.43;8.35;;;;;;;8.16;62.60;99689.56;10536895;28;20066;-77
2023/04/15 00:49:13;;;;;;;12.40;8.95;;;;;;;8.20;62.60;99689.28;10552722;28;20052;-76
2023/04/15 00:54:17;;;;;;;11.82;8.00;;;;;;;8.12;62.84;99693.47;10556579;28;20040;-78
2023/04/15 00:59:21;;;;;;;14.50;9.50;;;;;;;8.10;63.06;99690.06;10539988;28;20089;-78
2023/04/15 01:04:25;;;;;;;11.20;8.32;;;;;;;8.01;63.31;99688.16;10528214;28;20108;-80
2023/04/15 01:09:29;;;;;;;12.15;9.45;;;;;;;7.93;63.72;99687.91;10526441;28;20041;-80
2023/04/15 01:14:34;;;;;;;13.30;9.75;;;;;;;7.97;63.77;99694.72;10527599;28;20036;-79
2023/04/15 01:19:37;;;;;;;12.65;9.40;;;;;;;7.94;63.94;99690.44;10526881;28;20055;-79
2023/04/15 01:24:42;;;;;;;14.88;10.05;;;;;;;7.88;64.32;99693.63;10526471;28;20403;-80
2023/04/15 01:29:47;;;;;;;12.45;8.85;;;;;;;7.89;64.31;99687.28;10530967;28;20639;-78
2023/04/15 01:34:50;;;;;;;11.70;9.77;;;;;;;7.81;64.61;99688.91;10516814;28;20041;-77
2023/04/15 01:39:53;;;;;;;14.63;9.60;;;;;;;7.77;64.83;99690.97;10529794;28;20359;-79
2023/04/15 01:44:59;;;;;;;14.88;9.57;;;;;;;7.74;65.08;99691.22;10526180;28;20040;-78
2023/04/15 01:50:01;;;;;;;12.13;9.77;;;;;;;7.72;64.93;99699.34;10535250;28;20499;-79
2023/04/15 01:55:06;;;;;;;14.05;10.30;;;;;;;7.70;65.07;99690.59;10538901;28;20581;-79
2023/04/15 02:00:12;;;;;;;12.90;9.50;;;;;;;7.67;65.03;99695.34;10532025;28;20499;-79
2023/04/15 02:05:17;;;;;;;15.02;10.48;;;;;;;7.64;65.01;99684.91;10542085;28;20406;-77
2023/04/15 02:10:22;;;;;;;15.40;10.30;;;;;;;7.54;65.49;99682.09;10555588;28;20260;-80
2023/04/15 02:15:26;;;;;;;13.48;10.45;;;;;;;7.58;65.69;99678.22;10534034;28;20108;-79
2023/04/15 02:20:31;;;;;;;13.40;9.75;;;;;;;7.61;65.94;99687.81;10535108;28;20040;-81
2023/04/15 02:25:33;;;;;;;15.75;10.35;;;;;;;7.56;65.86;99682.84;10527158;28;20089;-80
2023/04/15 02:30:41;;;;;;;13.27;9.55;;;;;;;7.54;65.93;99692.78;10531893;28;20040;-78
2023/04/15 02:35:44;;;;;;;13.98;9.70;;;;;;;7.46;66.06;99695.22;10530958;28;20040;-80
2023/04/15 02:40:48;;;;;;;15.35;9.63;;;;;;;7.49;66.27;99698.53;10529645;28;20052;-78
2023/04/15 02:45:53;;;;;;;14.00;9.32;;;;;;;7.58;66.14;99698.75;10535065;28;20040;-79
2023/04/15 02:51:11;;;;;;;12.07;9.63;;;;;;;7.54;66.28;99700.81;10560802;28;20037;-80
2023/04/15 02:56:15;;;;;;;13.93;10.05;;;;;;;7.50;66.43;99692.19;10521190;28;20048;-79
2023/04/15 03:01:20;;;;;;;14.50;9.40;;;;;;;7.40;66.74;99693.88;10567777;28;20036;-78
2023/04/15 03:06:23;;;;;;;14.05;9.48;;;;;;;7.39;66.77;99699.38;10555433;28;20051;-78
2023/04/15 03:11:27;;;;;;;15.52;9.32;;;;;;;7.16;67.52;99688.66;10538338;28;20066;-79
2023/04/15 03:16:31;;;;;;;11.48;8.95;;;;;;;7.19;67.57;99696.44;10540463;28;20071;-78
2023/04/15 03:21:34;;;;;;;11.77;9.25;;;;;;;7.26;67.55;99691.44;10522747;28;20043;-78
2023/04/15 03:26:37;;;;;;;13.13;9.93;;;;;;;7.05;67.60;99691.31;10534639;28;20064;-79
2023/04/15 03:31:48;;;;;;;12.90;9.82;;;;;;;6.82;68.76;99680.53;10529862;28;20098;-79
2023/04/15 03:36:51;;;;;;;16.90;10.32;;;;;;;6.92;68.60;99682.56;10527924;28;20041;-80
2023/04/15 03:41:55;;;;;;;15.98;10.90;;;;;;;6.94;68.60;99681.47;10532718;28;20045;-77
2023/04/15 03:46:59;;;;;;;14.73;11.85;;;;;;;6.78;68.75;99705.78;10526143;28;20043;-78
2023/04/15 03:52:02;;;;;;;18.08;10.95;;;;;;;6.92;68.64;99712.78;10530373;28;20055;-74
2023/04/15 03:57:05;;;;;;;15.25;10.50;;;;;;;6.88;68.47;99710.44;10558746;28;20048;-77
2023/04/15 04:02:09;;;;;;;15.95;10.98;;;;;;;6.86;68.53;99718.56;10531593;28;20049;-78
2023/04/15 04:07:15;;;;;;;16.08;10.48;;;;;;;6.85;68.22;99714.16;10549247;22;20039;-80
2023/04/15 04:12:18;;;;;;;16.45;11.55;;;;;;;6.69;68.58;99713.63;10577583;28;20055;-81
2023/04/15 04:17:22;;;;;;;17.30;11.60;;;;;;;6.61;68.92;99711.56;10572611;28;20069;-82
2023/04/15 04:22:25;;;;;;;18.52;11.52;;;;;;;6.69;68.90;99710.94;10562928;28;20511;-82
2023/04/15 04:27:28;;;;;;;18.92;12.00;;;;;;;6.42;69.06;99720.06;10575952;28;20048;-81
2023/04/15 04:32:32;;;;;;;18.25;11.98;;;;;;;6.49;69.20;99725.78;10584221;28;20035;-81
2023/04/15 04:37:35;;;;;;;16.77;11.52;;;;;;;6.43;69.14;99727.09;10581750;28;20425;-82
2023/04/15 04:42:38;;;;;;;19.98;12.70;;;;;;;6.51;69.53;99721.19;10568187;28;20048;-81
2023/04/15 04:47:43;;;;;;;19.33;12.30;;;;;;;6.61;69.28;99720.41;10577149;28;20044;-82
2023/04/15 04:52:46;;;;;;;18.67;12.82;;;;;;;6.72;68.93;99729.41;10576496;28;20363;-82
2023/04/15 04:57:49;;;;;;;20.23;13.02;;;;;;;6.74;68.99;99728.31;10565874;28;20028;-82
2023/04/15 05:02:53;;;;;;;20.98;12.63;;;;;;;6.51;69.46;99730.06;10560541;28;20067;-81
2023/04/15 05:07:57;;;;;;;19.90;13.75;;;;;;;6.61;69.22;99724.91;10562202;28;20044;-82
2023/04/15 05:13:01;;;;;;;21.60;14.13;;;;;;;6.63;69.49;99742.47;10584559;28;20093;-81
2023/04/15 05:18:05;;;;;;;22.58;13.77;;;;;;;6.24;70.60;99740.94;10591371;28;20052;-81
2023/04/15 05:23:08;;;;;;;22.13;13.90;;;;;;;6.49;70.48;99739.13;10587282;28;20052;-81
2023/04/15 05:28:11;;;;;;;22.20;14.77;;;;;;;6.78;69.94;99739.63;10574637;28;20055;-82
2023/04/15 05:33:16;;;;;;;23.77;15.57;;;;;;;7.09;69.39;99740.00;10565900;28;20090;-81
2023/04/15 05:38:19;;;;;;;10.60;4.20;;;;;;;7.33;68.70;99746.13;10571157;28;20055;-81
2023/04/15 05:43:22;;;;;;;24.88;12.55;;;;;;;7.72;68.47;99741.28;10569448;28;20044;-82
2023/04/15 05:48:26;;;;;;;25.13;15.18;;;;;;;7.95;67.35;99747.47;10573083;28;20097;-82
2023/04/15 05:53:29;;;;;;;16.10;10.82;;;;;;;8.14;66.14;99744.16;10574257;28;20048;-82
2023/04/15 05:58:32;;;;;;;21.42;14.82;;;;;;;8.34;65.92;99748.75;10566037;28;20512;-82
2023/04/15 06:03:36;;;;;;;23.83;14.95;;;;;;;8.06;66.23;99765.31;10567602;28;20043;-82
2023/04/15 06:08:39;;;;;;;23.83;15.10;;;;;;;8.04;66.28;99760.13;10562440;28;20100;-81
2023/04/15 06:13:42;;;;;;;22.90;15.85;;;;;;;8.04;66.88;99767.28;10566744;28;20529;-82
2023/04/15 06:18:46;;;;;;;29.10;16.33;;;;;;;8.09;66.90;99773.97;10581745;28;20050;-82
2023/04/15 06:23:49;;;;;;;27.48;16.50;;;;;;;8.00;67.26;99779.19;10569437;28;20093;-81
2023/04/15 06:28:52;;;;;;;27.90;16.90;;;;;;;7.87;67.83;99779.31;10567659;28;20639;-82
2023/04/15 06:33:57;;;;;;;27.35;17.92;;;;;;;8.07;67.98;99786.63;10574202;28;20081;-81
2023/04/15 06:39:00;;;;;;;31.75;19.25;;;;;;;8.08;68.06;99780.28;10528524;28;20044;-82
2023/04/15 06:44:03;;;;;;;39.53;22.73;;;;;;;7.78;69.05;99780.91;10534825;28;20048;-81
2023/04/15 06:49:08;;;;;;;48.55;27.40;;;;;;;7.75;70.79;99783.81;10542103;27;20051;-81
2023/04/15 06:54:10;;;;;;;53.45;27.83;;;;;;;7.63;71.96;99785.63;10523619;27;20117;-82
2023/04/15 06:59:14;;;;;;;47.60;26.83;;;;;;;7.57;73.79;99782.56;10523130;28;20494;-81
2023/04/15 07:04:19;;;;;;;43.58;23.40;;;;;;;7.63;75.30;99784.78;10541539;27;20122;-80
2023/04/15 07:09:22;;;;;;;44.20;23.58;;;;;;;7.54;75.93;99790.84;10535760;27;20182;-81
2023/04/15 07:14:25;;;;;;;43.67;23.88;;;;;;;7.49;77.02;99785.88;10538187;27;20051;-81
2023/04/15 07:19:29;;;;;;;44.65;24.13;;;;;;;7.52;77.67;99790.13;10532565;28;20052;-81
2023/04/15 07:24:32;;;;;;;50.00;24.33;;;;;;;7.09;78.40;99788.06;10532549;27;20051;-80
2023/04/15 07:29:35;;;;;;;54.50;24.52;;;;;;;7.32;78.62;99792.50;10528088;28;20135;-80
2023/04/15 07:34:40;;;;;;;57.40;24.80;;;;;;;7.35;79.14;99805.63;10520153;28;20047;-83
2023/04/15 07:39:43;;;;;;;54.20;24.27;;;;;;;7.32;79.88;99803.19;10523606;27;21374;-82
2023/04/15 07:44:46;;;;;;;55.40;23.45;;;;;;;6.92;80.24;99808.03;10520390;28;20397;-83
2023/04/15 07:49:51;;;;;;;48.38;23.48;;;;;;;7.13;80.97;99822.47;10534189;27;20047;-83
2023/04/15 07:54:54;;;;;;;45.78;21.98;;;;;;;7.22;81.58;99816.41;10546483;27;20047;-83
2023/04/15 07:59:57;;;;;;;41.42;19.70;;;;;;;7.37;82.17;99817.03;10534765;27;20055;-84
2023/04/15 08:05:02;;;;;;;43.28;19.83;;;;;;;7.29;81.94;99814.09;10508399;27;20115;-84
2023/04/15 08:10:06;;;;;;;42.30;20.58;;;;;;;7.41;82.67;99823.03;10512402;27;20123;-83
2023/04/15 08:15:10;;;;;;;38.03;19.60;;;;;;;7.30;83.12;99821.16;10531562;27;20051;-82
2023/04/15 08:20:17;;;;;;;29.77;17.52;;;;;;;7.40;83.32;99829.31;10531589;27;20082;-82
2023/04/15 08:25:20;;;;;;;39.35;18.52;;;;;;;7.45;83.38;99837.84;10541014;27;20060;-81
2023/04/15 08:30:23;;;;;;;37.80;19.15;;;;;;;7.48;83.05;99835.78;10527725;27;20054;-83
2023/04/15 08:35:27;;;;;;;34.15;17.70;;;;;;;7.21;83.51;99827.19;10528297;27;20137;-82
2023/04/15 08:40:40;;;;;;;31.58;15.60;;;;;;;7.53;83.71;99831.91;10534590;27;20044;-83
2023/04/15 08:45:45;;;;;;;29.95;16.48;;;;;;;7.46;83.83;99834.19;10525846;27;20051;-82
2023/04/15 08:50:51;;;;;;;31.52;17.27;;;;;;;7.85;84.65;99834.75;10521970;27;20058;-83
2023/04/15 08:55:57;;;;;;;30.85;16.50;;;;;;;7.27;83.21;99824.06;10523737;27;20066;-82
2023/04/15 09:01:01;;;;;;;29.45;17.17;;;;;;;7.77;83.98;99835.34;10532778;27;20069;-82
2023/04/15 09:06:06;;;;;;;27.00;15.70;;;;;;;7.64;83.67;99837.28;10522663;27;20043;-81
2023/04/15 09:11:09;;;;;;;27.98;16.55;;;;;;;7.83;84.06;99834.88;10530099;27;20047;-80
2023/04/15 09:16:14;;;;;;;26.20;14.20;;;;;;;7.77;84.81;99837.19;10524513;27;20169;-81
2023/04/15 09:21:19;;;;;;;21.95;13.45;;;;;;;7.93;84.82;99840.34;10525982;27;20075;-81
2023/04/15 09:26:30;;;;;;;21.10;13.45;;;;;;;7.71;84.74;99850.06;10518590;27;20605;-80
2023/04/15 09:31:33;;;;;;;22.50;13.15;;;;;;;7.80;84.24;99852.97;10533965;27;20209;-81
2023/04/15 09:36:57;;;;;;;23.55;12.38;;;;;;;7.77;84.52;99861.25;10524960;28;20408;-81
2023/04/15 09:42:07;;;;;;;22.58;13.40;;;;;;;7.78;84.62;99862.94;10517635;28;20039;-81
2023/04/15 09:47:27;;;;;;;22.55;13.15;;;;;;;7.71;84.80;99863.41;10532653;28;20039;-81
2023/04/15 09:52:31;;;;;;;18.65;11.50;;;;;;;7.70;84.92;99871.53;10514929;28;20610;-82
2023/04/15 09:57:36;;;;;;;20.63;11.52;;;;;;;7.55;85.10;99867.41;10533525;27;20043;-82
2023/04/15 10:02:40;;;;;;;19.52;12.27;;;;;;;7.69;85.45;99869.84;10520652;27;20123;-81
2023/04/15 10:07:47;;;;;;;19.88;11.23;;;;;;;7.84;85.63;99874.00;10533510;27;20044;-82
2023/04/15 10:12:52;;;;;;;19.25;11.15;;;;;;;7.87;85.33;99872.91;10519667;28;20667;-83
2023/04/15 10:17:56;;;;;;;18.65;10.55;;;;;;;7.85;85.52;99870.38;10524804;27;20048;-82
2023/04/15 10:23:01;;;;;;;16.88;10.68;;;;;;;7.88;85.53;99864.78;10525929;27;20102;-81
2023/04/15 10:28:06;;;;;;;17.38;10.27;;;;;;;7.90;85.74;99872.69;10540185;27;20059;-82
2023/04/15 10:33:10;;;;;;;15.60;10.68;;;;;;;7.99;85.83;99884.50;10551227;27;20130;-81
2023/04/15 10:38:33;;;;;;;17.73;10.18;;;;;;;7.77;85.57;99879.97;10554547;28;20143;-80
2023/04/15 10:43:37;;;;;;;15.38;9.27;;;;;;;8.07;85.71;99877.56;10561940;27;20059;-82
2023/04/15 10:48:47;;;;;;;14.50;9.82;;;;;;;8.11;85.72;99880.84;10557233;27;20051;-81
2023/04/15 10:53:56;;;;;;;16.05;10.57;;;;;;;8.05;85.53;99890.19;10559407;27;20475;-82
2023/04/15 10:59:00;;;;;;;15.35;10.52;;;;;;;8.01;85.95;99894.09;10557894;27;20047;-82
2023/04/15 11:04:03;;;;;;;16.10;11.00;;;;;;;7.97;86.10;99889.09;10548424;27;20153;-82
2023/04/15 11:09:08;;;;;;;17.58;10.90;;;;;;;8.03;86.50;99894.81;10532938;27;20043;-82
2023/04/15 11:14:15;;;;;;;16.63;12.02;;;;;;;8.18;86.43;99887.41;10547559;27;20051;-82
2023/04/15 11:19:18;;;;;;;16.25;11.02;;;;;;;8.00;86.04;99899.56;10532031;27;20051;-83
2023/04/15 11:24:26;;;;;;;17.60;12.35;;;;;;;8.10;86.33;99904.06;10537828;27;20071;-82
2023/04/15 11:29:30;;;;;;;13.38;10.18;;;;;;;8.19;86.42;99907.84;10537207;27;20081;-82
2023/04/15 11:34:34;;;;;;;15.82;10.95;;;;;;;8.13;86.52;99906.50;10527624;27;21277;-81
2023/04/15 11:39:39;;;;;;;17.15;10.77;;;;;;;8.28;86.69;99909.81;10537199;27;20178;-81
2023/04/15 11:44:42;;;;;;;14.90;9.77;;;;;;;8.26;86.18;99924.28;10544307;27;20124;-83
2023/04/15 11:49:45;;;;;;;14.27;10.45;;;;;;;8.22;86.37;99925.47;10548774;27;20073;-82
2023/04/15 11:54:49;;;;;;;14.43;10.10;;;;;;;8.25;86.76;99936.78;10545424;27;20052;-83
2023/04/15 11:59:55;;;;;;;13.05;8.70;;;;;;;8.25;86.28;99936.78;10537789;28;21182;-82
2023/04/15 12:05:04;;;;;;;8.20;7.35;;;;;;;8.24;86.41;99928.91;10548718;27;20039;-82
2023/04/15 12:10:08;;;;;;;10.35;7.90;;;;;;;8.25;86.18;99946.63;10551661;27;20043;-83
2023/04/15 12:15:11;;;;;;;12.35;9.43;;;;;;;8.22;86.46;99945.06;10535948;27;20067;-83
2023/04/15 12:20:15;;;;;;;10.45;8.48;;;;;;;8.27;86.66;99955.41;10537203;27;20043;-83
2023/04/15 12:25:19;;;;;;;8.77;7.45;;;;;;;8.30;86.15;99956.00;10532477;27;20398;-83
2023/04/15 12:30:22;;;;;;;9.45;7.72;;;;;;;8.34;86.31;99973.53;10529896;27;20047;-83
2023/04/15 12:35:25;;;;;;;10.38;8.10;;;;;;;8.29;85.88;99980.22;10529133;27;20123;-84
2023/04/15 12:40:30;;;;;;;9.45;8.02;;;;;;;8.33;85.96;99979.84;10532773;27;20055;-84
2023/04/15 12:45:32;;;;;;;10.18;7.93;;;;;;;8.34;86.01;99986.94;10528483;27;20171;-83
2023/04/15 12:50:36;;;;;;;9.15;7.63;;;;;;;8.28;86.04;99990.09;10527669;27;20454;-83
2023/04/15 12:55:40;;;;;;;10.05;7.65;;;;;;;8.31;85.86;99997.88;10537765;27;20051;-84
2023/04/15 13:00:43;;;;;;;11.48;7.97;;;;;;;8.20;85.87;100008.56;10548034;27;20721;-84
2023/04/15 13:05:46;;;;;;;12.13;9.48;;;;;;;8.29;85.98;100002.47;10536596;27;20525;-85
2023/04/15 13:10:50;;;;;;;10.82;8.60;;;;;;;8.33;85.70;100006.63;10526858;27;20129;-84
2023/04/15 13:15:53;;;;;;;11.35;9.77;;;;;;;8.37;85.90;100013.44;10521000;27;20185;-84
2023/04/15 13:20:56;;;;;;;13.10;9.77;;;;;;;8.34;86.04;100004.81;10532019;27;20044;-84
2023/04/15 13:26:01;;;;;;;13.73;9.77;;;;;;;8.38;86.05;100008.94;10521333;27;20130;-84
2023/04/15 13:31:04;;;;;;;16.08;10.90;;;;;;;8.49;85.80;100018.84;10527161;27;20054;-83
2023/04/15 13:36:08;;;;;;;14.00;11.05;;;;;;;8.50;85.68;100024.09;10532996;27;20043;-84
2023/04/15 13:41:12;;;;;;;14.40;11.60;;;;;;;8.54;85.81;100028.22;10523269;27;20454;-83
2023/04/15 13:46:15;;;;;;;15.85;11.20;;;;;;;8.58;85.67;100034.19;10529986;27;20550;-83
2023/04/15 13:51:18;;;;;;;15.43;10.95;;;;;;;8.55;85.60;100037.94;10531154;27;20051;-85
2023/04/15 13:56:22;;;;;;;16.92;10.32;;;;;;;8.49;85.48;100049.13;10533229;27;20040;-84
2023/04/15 14:01:25;;;;;;;15.90;10.50;;;;;;;8.57;85.43;100046.72;10521286;27;20132;-82
2023/04/15 14:06:30;;;;;;;15.88;11.48;;;;;;;8.44;85.27;100056.63;10521487;27;20098;-81
2023/04/15 14:11:35;;;;;;;19.13;12.05;;;;;;;8.47;85.52;100055.56;10515445;27;20040;-82
2023/04/15 14:16:38;;;;;;;18.02;11.85;;;;;;;8.66;85.77;100063.88;10523421;27;20498;-82
2023/04/15 14:21:41;;;;;;;20.73;11.88;;;;;;;8.56;85.70;100068.28;10533752;27;20052;-81
2023/04/15 14:26:46;;;;;;;22.85;14.25;;;;;;;8.40;85.85;100072.09;10518450;27;20048;-82
2023/04/15 14:31:48;;;;;;;22.30;15.05;;;;;;;8.64;85.90;100083.72;10531400;27;20053;-81
2023/04/15 14:37:11;;;;;;;;;;;;;;;8.65;86.15;100086.28;10522955;27;20044;-83
2023/04/15 14:42:15;;;;;;;23.67;14.90;;;;;;;8.70;86.09;100092.16;10519216;27;19931;-81
2023/04/15 14:47:18;;;;;;;22.50;15.25;;;;;;;8.67;86.17;100116.50;10512274;27;20054;-82
2023/04/15 14:52:21;;;;;;;25.85;16.10;;;;;;;8.69;86.17;100114.53;10531849;27;20039;-82
2023/04/15 14:57:25;;;;;;;27.52;16.38;;;;;;;8.70;86.38;100120.75;10534539;27;20207;-81
2023/04/15 15:02:28;;;;;;;26.20;17.02;;;;;;;8.64;86.36;100126.56;10536615;27;20718;-82
2023/04/15 15:07:34;;;;;;;27.90;16.33;;;;;;;8.73;86.52;100131.22;10524651;27;20055;-81
2023/04/15 15:12:39;;;;;;;26.17;17.38;;;;;;;8.90;86.49;100129.91;10526830;27;20056;-82
2023/04/15 15:17:42;;;;;;;27.58;16.50;;;;;;;8.92;86.37;100141.38;10526470;27;21157;-81
2023/04/15 15:22:45;;;;;;;27.90;15.35;;;;;;;8.87;86.49;100151.59;10523904;27;20181;-81
2023/04/15 15:27:49;;;;;;;30.77;16.45;;;;;;;8.90;86.60;100152.19;10538013;27;20072;-81
2023/04/15 15:32:52;;;;;;;26.38;15.57;;;;;;;8.89;86.75;100160.34;10535313;27;20043;-82
2023/04/15 15:37:55;;;;;;;28.80;15.65;;;;;;;8.95;86.78;100162.56;10533037;27;20202;-82
2023/04/15 15:42:59;;;;;;;24.38;14.70;;;;;;;8.96;86.79;100180.31;10529534;27;20056;-82
2023/04/15 15:48:02;;;;;;;26.45;14.77;;;;;;;8.98;86.86;100179.22;10525697;27;20047;-82
2023/04/15 15:53:05;;;;;;;24.60;14.48;;;;;;;8.87;86.69;100189.94;10529050;28;20039;-82
2023/04/15 15:58:09;;;;;;;27.92;15.52;;;;;;;8.79;86.82;100195.03;10529758;27;20096;-82
2023/04/15 16:03:12;;;;;;;31.05;15.73;;;;;;;8.88;87.07;100199.66;10537490;27;20409;-81
2023/04/15 16:08:15;;;;;;;32.60;18.08;;;;;;;8.92;86.58;100211.00;10538675;27;20505;-81
2023/04/15 16:13:20;;;;;;;36.67;16.95;;;;;;;8.98;86.99;100219.41;10529256;27;20508;-81
2023/04/15 16:18:23;;;;;;;31.13;16.25;;;;;;;9.00;87.28;100216.63;10540724;27;20058;-81
2023/04/15 16:23:25;;;;;;;34.63;16.50;;;;;;;9.32;87.58;100207.91;10536859;27;20051;-82
2023/04/15 16:28:30;;;;;;;34.00;17.10;;;;;;;9.34;86.48;100222.03;10523951;27;20062;-81
2023/04/15 16:33:33;;;;;;;28.77;15.85;;;;;;;9.33;86.59;100215.84;10536334;27;20048;-82
2023/04/15 16:38:35;;;;;;;35.10;18.00;;;;;;;9.18;86.23;100230.41;10528401;27;20150;-81
2023/04/15 16:43:40;;;;;;;43.95;19.80;;;;;;;9.15;85.90;100236.88;10521070;27;20048;-81
2023/04/15 16:48:42;;;;;;;44.42;20.60;;;;;;;9.12;86.09;100252.34;10516050;27;20059;-82
2023/04/15 16:53:45;;;;;;;49.40;23.48;;;;;;;9.06;86.38;100251.84;10529960;27;20048;-82
2023/04/15 16:58:49;;;;;;;55.13;24.45;;;;;;;9.08;86.33;100254.41;10528093;27;20140;-83
2023/04/15 17:03:52;;;;;;;55.13;23.80;;;;;;;9.04;86.20;100253.78;10530419;27;20506;-82
2023/04/15 17:08:57;;;;;;;55.65;25.95;;;;;;;8.96;86.37;100263.38;10519196;27;20081;-82
2023/04/15 17:14:02;;;;;;;60.85;27.27;;;;;;;9.10;86.10;100267.66;10523110;27;20082;-82
2023/04/15 17:19:05;;;;;;;50.45;26.10;;;;;;;9.11;85.77;100274.75;10530422;27;20867;-83
2023/04/15 17:24:08;;;;;;;57.95;28.10;;;;;;;9.08;85.63;100283.00;10511492;28;20046;-83
2023/04/15 17:29:12;;;;;;;54.83;27.48;;;;;;;8.91;85.83;100284.28;10523439;27;20044;-83
2023/04/15 17:34:15;;;;;;;61.60;28.17;;;;;;;9.09;85.92;100280.22;10532622;27;20120;-83
2023/04/15 17:39:18;;;;;;;68.97;29.90;;;;;;;9.08;85.66;100283.00;10541433;27;20047;-83
2023/04/15 17:44:22;;;;;;;73.70;29.70;;;;;;;9.10;85.53;100299.81;10529863;27;20051;-83
2023/04/15 17:49:27;;;;;;;64.53;30.70;;;;;;;9.04;85.43;100298.47;10525913;27;20096;-85
2023/04/15 17:54:30;;;;;;;66.93;30.55;;;;;;;8.83;86.06;100307.16;10519146;27;20101;-83
2023/04/15 17:59:34;;;;;;;77.13;31.00;;;;;;;8.77;86.20;100312.97;10527949;27;20047;-84
2023/04/15 18:04:39;;;;;;;76.65;34.08;;;;;;;8.65;86.60;100318.41;10525930;27;20079;-83
2023/04/15 18:09:43;;;;;;;83.32;34.83;;;;;;;8.78;86.16;100325.41;10528881;27;20048;-83
2023/04/15 18:14:47;;;;;;;79.68;33.47;;;;;;;8.53;86.53;100331.72;10523423;27;20615;-83
2023/04/15 18:19:50;;;;;;;75.72;32.40;;;;;;;8.66;86.64;100336.16;10535945;27;20055;-83
2023/04/15 18:24:53;;;;;;;84.72;33.10;;;;;;;8.65;86.30;100346.03;10524968;27;20132;-85
2023/04/15 18:29:57;;;;;;;90.47;36.63;;;;;;;8.65;86.60;100339.81;10521008;27;20050;-84
2023/04/15 18:35:00;;;;;;;82.30;34.20;;;;;;;8.68;86.33;100355.66;10530312;27;20566;-84
2023/04/15 18:40:04;;;;;;;82.22;36.25;;;;;;;8.55;87.02;100363.72;10530316;27;20048;-83
2023/04/15 18:45:09;;;;;;;84.70;35.58;;;;;;;8.51;86.74;100373.81;10538187;27;20552;-84
2023/04/15 18:50:12;;;;;;;86.13;34.33;;;;;;;8.48;86.85;100389.25;10528902;27;20433;-83
2023/04/15 18:55:15;;;;;;;89.63;35.53;;;;;;;8.29;87.48;100393.19;10531747;27;20064;-83
2023/04/15 19:00:22;;;;;;;87.15;36.30;;;;;;;8.59;86.76;100394.69;10526453;27;20036;-83
2023/04/15 19:05:25;;;;;;;89.78;35.17;;;;;;;8.39;87.46;100407.66;10590891;27;20042;-84
2023/04/15 19:10:28;;;;;;;85.13;35.75;;;;;;;8.48;86.70;100410.66;10595232;27;20047;-83
2023/04/15 19:15:32;;;;;;;82.75;36.75;;;;;;;8.18;87.30;100415.38;10575790;27;20054;-83
2023/04/15 19:20:36;;;;;;;90.28;36.10;;;;;;;8.56;86.72;100430.56;10538629;27;20076;-84
2023/04/15 19:25:41;;;;;;;103.05;40.08;;;;;;;8.59;86.30;100430.34;10535854;27;20047;-84
2023/04/15 19:30:46;;;;;;;97.55;36.85;;;;;;;8.66;86.30;100433.41;10562970;27;20105;-85
2023/04/15 19:35:49;;;;;;;84.20;37.97;;;;;;;8.65;86.18;100447.78;10537441;27;20059;-82
2023/04/15 19:40:52;;;;;;;106.50;40.03;;;;;;;8.72;86.34;100453.53;10525029;27;21561;-82
2023/04/15 19:45:56;;;;;;;107.15;39.47;;;;;;;8.79;86.24;100455.66;10547913;27;20122;-85
2023/04/15 19:50:59;;;;;;;100.72;37.85;;;;;;;8.81;86.46;100472.50;10523038;27;20120;-84
2023/04/15 19:56:02;;;;;;;100.03;38.17;;;;;;;8.88;86.44;100464.84;10542629;27;20044;-84
2023/04/15 20:01:06;;;;;;;105.82;40.30;;;;;;;8.58;86.75;100455.41;10534572;28;20127;-84
2023/04/15 20:06:09;;;;;;;101.38;39.85;;;;;;;8.73;86.79;100461.47;10538720;27;20134;-85
2023/04/15 20:11:12;;;;;;;109.70;42.45;;;;;;;8.64;87.02;100472.88;10532197;27;20043;-85
2023/04/15 20:16:18;;;;;;;122.15;45.05;;;;;;;8.75;86.60;100458.66;10515122;27;20032;-87
2023/04/15 20:21:21;;;;;;;126.85;48.90;;;;;;;8.46;87.14;100461.63;10517817;27;20048;-84
2023/04/15 20:26:24;;;;;;;118.25;47.53;;;;;;;8.63;87.52;100470.28;10539189;27;20047;-85
2023/04/15 20:31:30;;;;;;;115.60;49.15;;;;;;;8.73;86.73;100468.66;10525349;27;20410;-85
2023/04/15 20:36:33;;;;;;;126.43;50.25;;;;;;;8.73;86.82;100476.69;10519042;27;20174;-85
2023/04/15 20:41:36;;;;;;;128.52;48.92;;;;;;;8.65;87.22;100477.25;10542803;27;21361;-86
2023/04/15 20:46:40;;;;;;;120.72;50.15;;;;;;;8.68;86.28;100468.97;10535066;27;20054;-85
2023/04/15 20:51:43;;;;;;;103.72;46.95;;;;;;;8.85;86.47;100481.16;10520069;27;20044;-86
2023/04/15 20:56:46;;;;;;;110.80;48.65;;;;;;;8.87;86.32;100494.44;10523272;27;20064;-86
2023/04/15 21:01:51;;;;;;;111.18;48.70;;;;;;;8.87;86.53;100487.25;10531729;27;20054;-87
2023/04/15 21:06:54;;;;;;;109.40;47.47;;;;;;;8.70;86.75;100482.28;10539039;27;20505;-86
2023/04/15 21:11:59;;;;;;;114.13;49.42;;;;;;;8.70;86.86;100487.63;10531444;27;20124;-86
2023/04/15 21:22:42;;;;;;;101.20;47.78;;;;;;;8.89;86.06;100500.56;10659449;23;20044;-79
2023/04/15 21:27:45;;;;;;;109.07;50.58;;;;;;;8.88;86.09;100502.34;10192761;29;20472;-80
2023/04/15 21:32:47;;;;;;;96.65;47.80;;;;;;;8.92;85.94;100503.00;10174968;29;20055;-78
2023/04/15 21:37:52;;;;;;;104.10;49.10;;;;;;;8.88;86.16;100515.75;10175482;29;20125;-79
2023/04/15 21:42:54;;;;;;;112.22;49.97;;;;;;;8.89;86.13;100511.28;10176772;29;20040;-80
2023/04/15 21:47:57;;;;;;;100.75;49.00;;;;;;;8.95;85.87;100529.59;10175988;29;20127;-78
2023/04/15 21:53:11;;;;;;;95.32;47.50;;;;;;;8.94;86.01;100538.56;10206503;23;20055;-74
2023/04/15 21:58:14;;;;;;;100.00;46.97;;;;;;;8.89;85.86;100543.44;10151193;29;20423;-73
2023/04/15 22:03:17;;;;;;;104.57;47.22;;;;;;;8.99;85.92;100545.31;10165430;29;20143;-73
2023/04/15 22:08:22;;;;;;;102.60;48.42;;;;;;;8.87;85.77;100542.66;10167848;29;20413;-73
2023/04/15 22:13:25;;;;;;;95.78;50.45;;;;;;;8.96;85.69;100552.72;10166669;29;20420;-73
2023/04/15 22:18:28;;;;;;;99.90;50.95;;;;;;;8.94;85.65;100557.31;10182060;23;20830;-85
2023/04/15 22:23:32;;;;;;;92.20;47.97;;;;;;;8.79;85.73;100560.13;10141434;29;20504;-85
2023/04/15 22:28:35;;;;;;;97.05;48.50;;;;;;;8.83;85.71;100558.97;10150077;29;20498;-85
2023/04/15 22:33:38;;;;;;;100.43;47.95;;;;;;;8.86;85.50;100559.69;10135340;29;20460;-85
2023/04/15 22:38:42;;;;;;;95.00;48.30;;;;;;;8.86;85.69;100562.38;10142850;29;20075;-84
2023/04/15 22:43:46;;;;;;;96.47;49.30;;;;;;;8.81;85.86;100565.41;10137786;29;20500;-84
2023/04/15 22:48:49;;;;;;;87.63;48.58;;;;;;;8.89;85.74;100576.44;10144868;29;20057;-85
2023/04/15 22:53:53;;;;;;;90.78;48.58;;;;;;;8.88;85.86;100585.41;10128945;29;20140;-83
2023/04/15 22:58:56;;;;;;;94.15;46.53;;;;;;;8.84;85.66;100597.31;10152543;29;20100;-83
2023/04/15 23:03:59;;;;;;;94.22;49.67;;;;;;;8.80;85.60;100593.13;10141100;29;20056;-84
2023/04/15 23:09:23;;;;;;;93.43;48.63;;;;;;;8.83;85.71;100599.16;10110895;29;20045;-83
2023/04/15 23:14:26;;;;;;;100.35;50.42;;;;;;;8.80;85.81;100601.16;10117263;29;20048;-84
2023/04/15 23:19:29;;;;;;;85.25;48.53;;;;;;;8.86;85.64;100606.13;10137365;29;20057;-84